sensor_id;sensor_type;location;lat;lon;timestamp;pressure;altitude;pressure_sealevel;temperature;humidity
30682;BME280;17439;48.092;11.842;2023-11-19T00:01:24;95505.34;;;7.53;74.23
30682;BME280;17439;48.092;11.842;2023-11-19T00:03:51;95509.34;;;7.56;74.21
30682;BME280;17439;48.092;11.842;2023-11-19T00:06:18;95498.28;;;7.57;74.22
30682;BME280;17439;48.092;11.842;2023-11-19T00:08:45;95514.97;;;7.59;74.04
30682;BME280;17439;48.092;11.842;2023-11-19T00:11:11;95501.19;;;7.61;74.10
30682;BME280;17439;48.092;11.842;2023-11-19T00:13:38;95501.97;;;7.61;74.22
30682;BME280;17439;48.092;11.842;2023-11-19T00:16:05;95501.41;;;7.65;74.22
30682;BME280;17439;48.092;11.842;2023-11-19T00:18:32;95494.94;;;7.66;74.15
30682;BME280;17439;48.092;11.842;2023-11-19T00:20:59;95482.22;;;7.66;74.56
30682;BME280;17439;48.092;11.842;2023-11-19T00:23:26;95477.03;;;7.70;74.57
30682;BME280;17439;48.092;11.842;2023-11-19T00:25:53;95463.78;;;7.73;74.59
30682;BME280;17439;48.092;11.842;2023-11-19T00:28:19;95465.91;;;7.76;74.26
30682;BME280;17439;48.092;11.842;2023-11-19T00:30:46;95466.41;;;7.78;74.15
30682;BME280;17439;48.092;11.842;2023-11-19T00:33:13;95459.09;;;7.79;74.12
30682;BME280;17439;48.092;11.842;2023-11-19T00:35:39;95458.31;;;7.78;74.15
30682;BME280;17439;48.092;11.842;2023-11-19T00:38:06;95456.13;;;7.80;74.38
30682;BME280;17439;48.092;11.842;2023-11-19T00:40:33;95443.94;;;7.83;74.68
30682;BME280;17439;48.092;11.842;2023-11-19T00:42:59;95442.81;;;7.84;74.59
30682;BME280;17439;48.092;11.842;2023-11-19T00:45:27;95447.94;;;7.86;74.83
30682;BME280;17439;48.092;11.842;2023-11-19T00:47:54;95444.16;;;7.87;74.99
30682;BME280;17439;48.092;11.842;2023-11-19T00:50:21;95448.16;;;7.89;75.17
30682;BME280;17439;48.092;11.842;2023-11-19T00:52:47;95446.75;;;7.92;75.25
30682;BME280;17439;48.092;11.842;2023-11-19T00:55:14;95444.59;;;7.94;75.28
30682;BME280;17439;48.092;11.842;2023-11-19T00:57:41;95440.97;;;7.98;75.34
30682;BME280;17439;48.092;11.842;2023-11-19T01:00:08;95445.78;;;8.02;75.30
30682;BME280;17439;48.092;11.842;2023-11-19T01:02:36;95440.09;;;8.03;75.26
30682;BME280;17439;48.092;11.842;2023-11-19T01:05:03;95440.34;;;8.07;75.22
30682;BME280;17439;48.092;11.842;2023-11-19T01:07:29;95437.06;;;8.10;75.47
30682;BME280;17439;48.092;11.842;2023-11-19T01:09:56;95440.75;;;8.14;75.71
30682;BME280;17439;48.092;11.842;2023-11-19T01:12:23;95436.38;;;8.18;75.78
30682;BME280;17439;48.092;11.842;2023-11-19T01:14:50;95440.34;;;8.21;75.79
30682;BME280;17439;48.092;11.842;2023-11-19T01:17:16;95435.69;;;8.26;75.83
30682;BME280;17439;48.092;11.842;2023-11-19T01:19:43;95437.81;;;8.29;75.79
30682;BME280;17439;48.092;11.842;2023-11-19T01:22:10;95430.41;;;8.35;75.80
30682;BME280;17439;48.092;11.842;2023-11-19T01:24:37;95427.09;;;8.38;75.49
30682;BME280;17439;48.092;11.842;2023-11-19T01:27:04;95424.94;;;8.40;75.31
30682;BME280;17439;48.092;11.842;2023-11-19T01:29:30;95428.91;;;8.43;75.18
30682;BME280;17439;48.092;11.842;2023-11-19T01:31:57;95423.50;;;8.43;74.86
30682;BME280;17439;48.092;11.842;2023-11-19T01:34:24;95404.34;;;8.44;74.78
30682;BME280;17439;48.092;11.842;2023-11-19T01:36:51;95404.84;;;8.46;74.84
30682;BME280;17439;48.092;11.842;2023-11-19T01:39:17;95404.03;;;8.46;74.37
30682;BME280;17439;48.092;11.842;2023-11-19T01:41:44;95401.34;;;8.46;74.40
30682;BME280;17439;48.092;11.842;2023-11-19T01:44:11;95398.63;;;8.46;74.25
30682;BME280;17439;48.092;11.842;2023-11-19T01:46:38;95393.53;;;8.44;74.22
30682;BME280;17439;48.092;11.842;2023-11-19T01:49:07;95391.66;;;8.45;74.15
30682;BME280;17439;48.092;11.842;2023-11-19T01:51:34;95398.13;;;8.44;74.31
30682;BME280;17439;48.092;11.842;2023-11-19T01:54:01;95394.66;;;8.43;74.44
30682;BME280;17439;48.092;11.842;2023-11-19T01:56:28;95386.53;;;8.43;74.52
30682;BME280;17439;48.092;11.842;2023-11-19T01:58:55;95388.38;;;8.43;74.64
30682;BME280;17439;48.092;11.842;2023-11-19T02:01:22;95383.00;;;8.43;75.06
30682;BME280;17439;48.092;11.842;2023-11-19T02:03:49;95378.13;;;8.45;74.91
30682;BME280;17439;48.092;11.842;2023-11-19T02:06:16;95376.22;;;8.45;75.16
30682;BME280;17439;48.092;11.842;2023-11-19T02:08:43;95373.22;;;8.47;75.14
30682;BME280;17439;48.092;11.842;2023-11-19T02:11:10;95377.22;;;8.49;75.33
30682;BME280;17439;48.092;11.842;2023-11-19T02:13:37;95373.91;;;8.52;75.69
30682;BME280;17439;48.092;11.842;2023-11-19T02:16:05;95366.34;;;8.55;75.66
30682;BME280;17439;48.092;11.842;2023-11-19T02:18:32;95356.81;;;8.57;75.58
30682;BME280;17439;48.092;11.842;2023-11-19T02:20:59;95349.72;;;8.61;75.76
30682;BME280;17439;48.092;11.842;2023-11-19T02:23:27;95346.41;;;8.64;75.62
30682;BME280;17439;48.092;11.842;2023-11-19T02:26:15;95339.91;;;8.65;74.33
30682;BME280;17439;48.092;11.842;2023-11-19T02:28:45;95327.38;;;8.69;75.72
30682;BME280;17439;48.092;11.842;2023-11-19T02:31:11;95320.88;;;8.70;75.75
30682;BME280;17439;48.092;11.842;2023-11-19T02:33:39;95314.28;;;8.77;75.83
30682;BME280;17439;48.092;11.842;2023-11-19T02:36:07;95315.56;;;8.79;75.84
30682;BME280;17439;48.092;11.842;2023-11-19T02:38:35;95312.25;;;8.82;75.83
30682;BME280;17439;48.092;11.842;2023-11-19T02:41:03;95302.25;;;8.83;75.76
30682;BME280;17439;48.092;11.842;2023-11-19T02:43:31;95304.34;;;8.86;76.19
30682;BME280;17439;48.092;11.842;2023-11-19T02:46:02;95302.16;;;8.88;75.52
30682;BME280;17439;48.092;11.842;2023-11-19T02:48:41;95301.53;;;8.91;76.40
30682;BME280;17439;48.092;11.842;2023-11-19T02:51:08;95294.41;;;8.95;76.75
30682;BME280;17439;48.092;11.842;2023-11-19T02:53:35;95302.72;;;8.99;76.91
30682;BME280;17439;48.092;11.842;2023-11-19T02:56:03;95293.19;;;9.01;76.85
30682;BME280;17439;48.092;11.842;2023-11-19T02:58:29;95298.78;;;9.05;76.98
30682;BME280;17439;48.092;11.842;2023-11-19T03:00:56;95285.16;;;9.10;77.09
30682;BME280;17439;48.092;11.842;2023-11-19T03:03:24;95269.91;;;9.14;77.22
30682;BME280;17439;48.092;11.842;2023-11-19T03:05:51;95275.50;;;9.18;77.40
30682;BME280;17439;48.092;11.842;2023-11-19T03:08:18;95277.28;;;9.22;77.52
30682;BME280;17439;48.092;11.842;2023-11-19T03:10:47;95269.88;;;9.28;77.57
30682;BME280;17439;48.092;11.842;2023-11-19T03:13:15;95268.16;;;9.32;77.73
30682;BME280;17439;48.092;11.842;2023-11-19T03:15:42;95266.44;;;9.36;77.73
30682;BME280;17439;48.092;11.842;2023-11-19T03:18:09;95256.28;;;9.42;77.74
30682;BME280;17439;48.092;11.842;2023-11-19T03:20:36;95260.78;;;9.47;77.63
30682;BME280;17439;48.092;11.842;2023-11-19T03:23:02;95260.97;;;9.50;77.61
30682;BME280;17439;48.092;11.842;2023-11-19T03:25:29;95261.13;;;9.54;77.83
30682;BME280;17439;48.092;11.842;2023-11-19T03:27:56;95252.88;;;9.59;77.73
30682;BME280;17439;48.092;11.842;2023-11-19T03:30:23;95251.16;;;9.63;77.83
30682;BME280;17439;48.092;11.842;2023-11-19T03:33:00;95251.34;;;9.67;77.88
30682;BME280;17439;48.092;11.842;2023-11-19T03:35:27;95245.78;;;9.72;77.80
30682;BME280;17439;48.092;11.842;2023-11-19T03:37:53;95250.59;;;9.75;77.75
30682;BME280;17439;48.092;11.842;2023-11-19T03:40:20;95248.09;;;9.78;77.88
30682;BME280;17439;48.092;11.842;2023-11-19T03:42:47;95247.16;;;9.83;77.88
30682;BME280;17439;48.092;11.842;2023-11-19T03:45:13;95244.94;;;9.85;77.92
30682;BME280;17439;48.092;11.842;2023-11-19T03:47:41;95239.69;;;9.89;77.96
30682;BME280;17439;48.092;11.842;2023-11-19T03:50:08;95243.69;;;9.91;78.03
30682;BME280;17439;48.092;11.842;2023-11-19T03:52:35;95246.25;;;9.96;77.99
30682;BME280;17439;48.092;11.842;2023-11-19T03:55:10;95254.84;;;9.98;77.96
30682;BME280;17439;48.092;11.842;2023-11-19T03:57:38;95247.72;;;10.03;77.98
30682;BME280;17439;48.092;11.842;2023-11-19T04:00:05;95258.72;;;10.06;78.18
30682;BME280;17439;48.092;11.842;2023-11-19T04:02:38;95248.38;;;10.08;77.94
30682;BME280;17439;48.092;11.842;2023-11-19T04:05:06;95249.34;;;10.12;77.92
30682;BME280;17439;48.092;11.842;2023-11-19T04:07:33;95246.00;;;10.15;77.93
30682;BME280;17439;48.092;11.842;2023-11-19T04:10:00;95242.69;;;10.19;78.02
30682;BME280;17439;48.092;11.842;2023-11-19T04:12:26;95243.94;;;10.21;78.07
30682;BME280;17439;48.092;11.842;2023-11-19T04:14:53;95247.66;;;10.25;78.08
30682;BME280;17439;48.092;11.842;2023-11-19T04:17:23;95241.59;;;10.28;78.15
30682;BME280;17439;48.092;11.842;2023-11-19T04:19:49;95242.63;;;10.32;78.05
30682;BME280;17439;48.092;11.842;2023-11-19T04:22:16;95246.59;;;10.35;77.90
30682;BME280;17439;48.092;11.842;2023-11-19T04:24:44;95256.00;;;10.38;78.11
30682;BME280;17439;48.092;11.842;2023-11-19T04:27:10;95250.28;;;10.39;78.07
30682;BME280;17439;48.092;11.842;2023-11-19T04:29:39;95256.97;;;10.42;78.04
30682;BME280;17439;48.092;11.842;2023-11-19T04:32:06;95258.25;;;10.44;78.21
30682;BME280;17439;48.092;11.842;2023-11-19T04:34:32;95250.59;;;10.46;78.07
30682;BME280;17439;48.092;11.842;2023-11-19T04:36:59;95251.09;;;10.48;78.01
30682;BME280;17439;48.092;11.842;2023-11-19T04:39:39;95252.69;;;10.49;77.94
30682;BME280;17439;48.092;11.842;2023-11-19T04:42:05;95258.59;;;10.51;78.02
30682;BME280;17439;48.092;11.842;2023-11-19T04:44:32;95252.38;;;10.51;77.89
30682;BME280;17439;48.092;11.842;2023-11-19T04:46:59;95262.09;;;10.52;77.96
30682;BME280;17439;48.092;11.842;2023-11-19T04:49:26;95254.78;;;10.52;78.24
30682;BME280;17439;48.092;11.842;2023-11-19T04:51:53;95261.78;;;10.53;78.21
30682;BME280;17439;48.092;11.842;2023-11-19T04:54:19;95253.66;;;10.53;78.35
30682;BME280;17439;48.092;11.842;2023-11-19T04:56:46;95254.44;;;10.54;78.38
30682;BME280;17439;48.092;11.842;2023-11-19T04:59:13;95254.44;;;10.54;78.51
30682;BME280;17439;48.092;11.842;2023-11-19T05:01:40;95247.94;;;10.55;78.66
30682;BME280;17439;48.092;11.842;2023-11-19T05:04:07;95258.47;;;10.57;78.63
30682;BME280;17439;48.092;11.842;2023-11-19T05:06:34;95259.25;;;10.57;78.66
30682;BME280;17439;48.092;11.842;2023-11-19T05:09:01;95259.25;;;10.57;78.94
30682;BME280;17439;48.092;11.842;2023-11-19T05:11:31;95260.84;;;10.58;79.15
30682;BME280;17439;48.092;11.842;2023-11-19T05:13:58;95265.66;;;10.61;79.11
30682;BME280;17439;48.092;11.842;2023-11-19T05:16:25;95259.91;;;10.63;79.21
30682;BME280;17439;48.092;11.842;2023-11-19T05:18:52;95266.59;;;10.65;79.41
30682;BME280;17439;48.092;11.842;2023-11-19T05:21:18;95268.19;;;10.66;79.65
30682;BME280;17439;48.092;11.842;2023-11-19T05:23:45;95282.22;;;10.68;79.85
30682;BME280;17439;48.092;11.842;2023-11-19T05:26:19;95271.88;;;10.70;79.69
30682;BME280;17439;48.092;11.842;2023-11-19T05:28:46;95272.06;;;10.74;80.31
30682;BME280;17439;48.092;11.842;2023-11-19T05:31:13;95277.94;;;10.76;80.40
30682;BME280;17439;48.092;11.842;2023-11-19T05:33:40;95282.75;;;10.79;80.37
30682;BME280;17439;48.092;11.842;2023-11-19T05:36:07;95280.69;;;10.85;80.66
30682;BME280;17439;48.092;11.842;2023-11-19T05:38:35;95291.22;;;10.86;80.93
30682;BME280;17439;48.092;11.842;2023-11-19T05:41:02;95293.28;;;10.89;81.17
30682;BME280;17439;48.092;11.842;2023-11-19T05:43:29;95295.88;;;10.95;81.16
30682;BME280;17439;48.092;11.842;2023-11-19T05:45:56;95286.47;;;11.01;81.25
30682;BME280;17439;48.092;11.842;2023-11-19T05:48:25;95286.31;;;11.06;81.42
30682;BME280;17439;48.092;11.842;2023-11-19T05:50:52;95284.06;;;11.08;81.65
30682;BME280;17439;48.092;11.842;2023-11-19T05:53:19;95288.53;;;11.13;81.81
30682;BME280;17439;48.092;11.842;2023-11-19T05:55:45;95290.63;;;11.16;81.81
30682;BME280;17439;48.092;11.842;2023-11-19T05:58:12;95284.22;;;11.20;81.80
30682;BME280;17439;48.092;11.842;2023-11-19T06:00:39;95293.00;;;11.26;81.92
30682;BME280;17439;48.092;11.842;2023-11-19T06:03:07;95299.72;;;11.29;81.85
30682;BME280;17439;48.092;11.842;2023-11-19T06:05:34;95295.56;;;11.22;81.68
30682;BME280;17439;48.092;11.842;2023-11-19T06:08:00;95292.22;;;11.34;81.80
30682;BME280;17439;48.092;11.842;2023-11-19T06:10:27;95286.16;;;11.37;81.86
30682;BME280;17439;48.092;11.842;2023-11-19T06:12:54;95283.59;;;11.41;81.91
30682;BME280;17439;48.092;11.842;2023-11-19T06:15:21;95282.16;;;11.43;81.89
30682;BME280;17439;48.092;11.842;2023-11-19T06:17:48;95278.00;;;11.46;81.73
30682;BME280;17439;48.092;11.842;2023-11-19T06:20:14;95281.19;;;11.48;81.83
30682;BME280;17439;48.092;11.842;2023-11-19T06:22:41;95283.25;;;11.51;81.83
30682;BME280;17439;48.092;11.842;2023-11-19T06:25:08;95297.81;;;11.55;81.66
30682;BME280;17439;48.092;11.842;2023-11-19T06:27:35;95299.38;;;11.56;81.74
30682;BME280;17439;48.092;11.842;2023-11-19T06:30:02;95296.66;;;11.56;81.78
30682;BME280;17439;48.092;11.842;2023-11-19T06:32:28;95287.09;;;11.59;81.77
30682;BME280;17439;48.092;11.842;2023-11-19T06:34:55;95288.38;;;11.61;81.73
30682;BME280;17439;48.092;11.842;2023-11-19T06:37:22;95286.91;;;11.64;81.63
30682;BME280;17439;48.092;11.842;2023-11-19T06:39:49;95284.69;;;11.66;81.69
30682;BME280;17439;48.092;11.842;2023-11-19T06:42:16;95278.13;;;11.67;81.69
30682;BME280;17439;48.092;11.842;2023-11-19T06:44:42;95280.53;;;11.69;81.55
30682;BME280;17439;48.092;11.842;2023-11-19T06:47:09;95301.16;;;11.70;81.73
30682;BME280;17439;48.092;11.842;2023-11-19T06:49:36;95297.78;;;11.73;81.78
30682;BME280;17439;48.092;11.842;2023-11-19T06:52:03;95295.84;;;11.73;81.66
30682;BME280;17439;48.092;11.842;2023-11-19T06:54:30;95295.53;;;11.75;81.80
30682;BME280;17439;48.092;11.842;2023-11-19T06:56:56;95287.84;;;11.77;81.88
30682;BME280;17439;48.092;11.842;2023-11-19T06:59:23;95294.09;;;11.77;81.81
30682;BME280;17439;48.092;11.842;2023-11-19T07:01:50;95296.97;;;11.81;81.83
30682;BME280;17439;48.092;11.842;2023-11-19T07:04:16;95299.38;;;11.83;81.94
30682;BME280;17439;48.092;11.842;2023-11-19T07:06:43;95300.16;;;11.83;81.87
30682;BME280;17439;48.092;11.842;2023-11-19T07:09:10;95301.44;;;11.86;81.90
30682;BME280;17439;48.092;11.842;2023-11-19T07:11:40;95316.63;;;11.87;81.65
30682;BME280;17439;48.092;11.842;2023-11-19T07:14:08;95312.78;;;11.88;82.18
30682;BME280;17439;48.092;11.842;2023-11-19T07:16:35;95321.38;;;11.90;82.28
30682;BME280;17439;48.092;11.842;2023-11-19T07:19:02;95313.44;;;11.93;82.32
30682;BME280;17439;48.092;11.842;2023-11-19T07:21:29;95315.53;;;11.96;82.29
30682;BME280;17439;48.092;11.842;2023-11-19T07:23:55;95308.63;;;11.99;82.43
30682;BME280;17439;48.092;11.842;2023-11-19T07:26:23;95322.06;;;12.04;82.38
30682;BME280;17439;48.092;11.842;2023-11-19T07:28:50;95331.78;;;12.05;82.28
30682;BME280;17439;48.092;11.842;2023-11-19T07:31:17;95323.78;;;12.09;82.26
30682;BME280;17439;48.092;11.842;2023-11-19T07:33:44;95324.28;;;12.11;82.31
30682;BME280;17439;48.092;11.842;2023-11-19T07:36:12;95319.31;;;12.13;82.27
30682;BME280;17439;48.092;11.842;2023-11-19T07:38:38;95324.09;;;12.16;82.18
30682;BME280;17439;48.092;11.842;2023-11-19T07:41:05;95320.72;;;12.19;82.12
30682;BME280;17439;48.092;11.842;2023-11-19T07:43:32;95330.50;;;12.20;82.05
30682;BME280;17439;48.092;11.842;2023-11-19T07:45:59;95327.91;;;12.24;82.02
30682;BME280;17439;48.092;11.842;2023-11-19T07:48:26;95338.16;;;12.27;81.98
30682;BME280;17439;48.092;11.842;2023-11-19T07:50:53;95337.81;;;12.28;82.02
30682;BME280;17439;48.092;11.842;2023-11-19T07:53:19;95338.28;;;12.30;82.19
30682;BME280;17439;48.092;11.842;2023-11-19T07:55:46;95344.19;;;12.32;82.13
30682;BME280;17439;48.092;11.842;2023-11-19T07:58:13;95350.13;;;12.34;82.03
30682;BME280;17439;48.092;11.842;2023-11-19T08:00:40;95344.03;;;12.38;82.20
30682;BME280;17439;48.092;11.842;2023-11-19T08:03:06;95349.47;;;12.38;81.94
30682;BME280;17439;48.092;11.842;2023-11-19T08:05:33;95348.78;;;12.41;81.83
30682;BME280;17439;48.092;11.842;2023-11-19T08:08:00;95344.63;;;12.43;81.77
30682;BME280;17439;48.092;11.842;2023-11-19T08:10:27;95343.19;;;12.46;81.66
30682;BME280;17439;48.092;11.842;2023-11-19T08:12:53;95344.63;;;12.43;81.46
30682;BME280;17439;48.092;11.842;2023-11-19T08:15:20;95349.09;;;12.48;81.52
30682;BME280;17439;48.092;11.842;2023-11-19T08:17:49;95347.50;;;12.47;81.48
30682;BME280;17439;48.092;11.842;2023-11-19T08:20:16;95355.00;;;12.50;81.52
30682;BME280;17439;48.092;11.842;2023-11-19T08:22:43;95349.25;;;12.51;81.45
30682;BME280;17439;48.092;11.842;2023-11-19T08:25:09;95339.19;;;12.52;81.53
30682;BME280;17439;48.092;11.842;2023-11-19T08:27:36;95341.56;;;12.54;81.69
30682;BME280;17439;48.092;11.842;2023-11-19T08:30:04;95347.81;;;12.54;81.63
30682;BME280;17439;48.092;11.842;2023-11-19T08:32:31;95349.41;;;12.55;81.69
30682;BME280;17439;48.092;11.842;2023-11-19T08:34:58;95341.72;;;12.57;81.94
30682;BME280;17439;48.092;11.842;2023-11-19T08:37:25;95355.44;;;12.61;82.08
30682;BME280;17439;48.092;11.842;2023-11-19T08:39:53;95351.63;;;12.62;81.92
30682;BME280;17439;48.092;11.842;2023-11-19T08:42:19;95358.00;;;12.66;81.92
30682;BME280;17439;48.092;11.842;2023-11-19T08:44:49;95363.09;;;12.67;81.04
30682;BME280;17439;48.092;11.842;2023-11-19T08:47:17;95359.25;;;12.68;81.58
30682;BME280;17439;48.092;11.842;2023-11-19T08:49:44;95357.34;;;12.69;81.50
30682;BME280;17439;48.092;11.842;2023-11-19T08:52:11;95358.63;;;12.72;81.58
30682;BME280;17439;48.092;11.842;2023-11-19T08:54:38;95357.97;;;12.75;81.61
30682;BME280;17439;48.092;11.842;2023-11-19T08:57:08;95360.34;;;12.76;81.48
30682;BME280;17439;48.092;11.842;2023-11-19T08:59:35;95364.31;;;12.79;81.49
30682;BME280;17439;48.092;11.842;2023-11-19T09:02:02;95358.88;;;12.79;81.42
30682;BME280;17439;48.092;11.842;2023-11-19T09:04:29;95357.44;;;12.81;81.54
30682;BME280;17439;48.092;11.842;2023-11-19T09:06:57;95365.28;;;12.83;81.25
30682;BME280;17439;48.092;11.842;2023-11-19T09:09:24;95356.00;;;12.84;81.54
30682;BME280;17439;48.092;11.842;2023-11-19T09:11:51;95354.53;;;12.86;81.63
30682;BME280;17439;48.092;11.842;2023-11-19T09:14:18;95355.50;;;12.91;82.05
30682;BME280;17439;48.092;11.842;2023-11-19T09:16:44;95358.66;;;12.93;81.82
30682;BME280;17439;48.092;11.842;2023-11-19T09:19:11;95356.41;;;12.95;81.77
30682;BME280;17439;48.092;11.842;2023-11-19T09:21:38;95359.28;;;12.98;81.82
30682;BME280;17439;48.092;11.842;2023-11-19T09:24:04;95361.69;;;13.00;81.74
30682;BME280;17439;48.092;11.842;2023-11-19T09:26:31;95367.28;;;13.03;81.69
30682;BME280;17439;48.092;11.842;2023-11-19T09:28:58;95369.34;;;13.06;81.71
30682;BME280;17439;48.092;11.842;2023-11-19T09:31:24;95360.06;;;13.07;81.74
30682;BME280;17439;48.092;11.842;2023-11-19T09:33:51;95363.25;;;13.10;81.80
30682;BME280;17439;48.092;11.842;2023-11-19T09:36:18;95354.41;;;13.13;81.77
30682;BME280;17439;48.092;11.842;2023-11-19T09:38:45;95361.91;;;13.16;81.98
30682;BME280;17439;48.092;11.842;2023-11-19T09:41:12;95372.94;;;13.19;81.95
30682;BME280;17439;48.092;11.842;2023-11-19T09:43:39;95368.44;;;13.23;82.06
30682;BME280;17439;48.092;11.842;2023-11-19T09:46:07;95374.03;;;13.27;81.88
30682;BME280;17439;48.092;11.842;2023-11-19T09:48:36;95367.09;;;13.30;81.72
30682;BME280;17439;48.092;11.842;2023-11-19T09:51:04;95364.88;;;13.32;81.44
30682;BME280;17439;48.092;11.842;2023-11-19T09:53:31;95359.59;;;13.35;81.71
30682;BME280;17439;48.092;11.842;2023-11-19T09:56:00;95356.84;;;13.35;81.09
30682;BME280;17439;48.092;11.842;2023-11-19T09:58:29;95366.63;;;13.36;81.19
30682;BME280;17439;48.092;11.842;2023-11-19T10:00:56;95362.09;;;13.40;81.46
30682;BME280;17439;48.092;11.842;2023-11-19T10:03:46;95357.13;;;13.42;80.10
30682;BME280;17439;48.092;11.842;2023-11-19T10:06:15;95363.06;;;13.45;81.39
30682;BME280;17439;48.092;11.842;2023-11-19T10:08:43;95355.34;;;13.47;81.74
30682;BME280;17439;48.092;11.842;2023-11-19T10:11:10;95342.19;;;13.49;81.78
30682;BME280;17439;48.092;11.842;2023-11-19T10:13:37;95343.13;;;13.53;82.08
30682;BME280;17439;48.092;11.842;2023-11-19T10:16:07;95347.91;;;13.56;81.63
30682;BME280;17439;48.092;11.842;2023-11-19T10:18:34;95341.13;;;13.62;82.61
30682;BME280;17439;48.092;11.842;2023-11-19T10:21:01;95338.53;;;13.66;82.70
30682;BME280;17439;48.092;11.842;2023-11-19T10:23:28;95338.00;;;13.72;82.76
30682;BME280;17439;48.092;11.842;2023-11-19T10:26:02;95335.06;;;13.77;81.16
30682;BME280;17439;48.092;11.842;2023-11-19T10:28:39;95338.06;;;13.85;80.69
30682;BME280;17439;48.092;11.842;2023-11-19T10:31:05;95337.16;;;13.93;82.78
30682;BME280;17439;48.092;11.842;2023-11-19T10:33:32;95325.28;;;13.97;82.33
30682;BME280;17439;48.092;11.842;2023-11-19T10:35:59;95327.91;;;14.06;82.28
30682;BME280;17439;48.092;11.842;2023-11-19T10:38:28;95325.75;;;14.12;82.08
30682;BME280;17439;48.092;11.842;2023-11-19T10:40:55;95318.19;;;14.18;82.02
30682;BME280;17439;48.092;11.842;2023-11-19T10:43:22;95317.50;;;14.21;81.42
30682;BME280;17439;48.092;11.842;2023-11-19T10:45:50;95314.56;;;14.26;81.57
30682;BME280;17439;48.092;11.842;2023-11-19T10:48:17;95302.97;;;14.29;81.78
30682;BME280;17439;48.092;11.842;2023-11-19T10:50:45;95307.88;;;14.36;81.28
30682;BME280;17439;48.092;11.842;2023-11-19T10:53:12;95310.72;;;14.39;81.55
30682;BME280;17439;48.092;11.842;2023-11-19T10:55:39;95302.78;;;14.46;81.60
30682;BME280;17439;48.092;11.842;2023-11-19T10:58:07;95299.84;;;14.51;81.56
30682;BME280;17439;48.092;11.842;2023-11-19T11:00:54;95305.06;;;14.57;78.97
30682;BME280;17439;48.092;11.842;2023-11-19T11:03:24;95294.41;;;14.64;80.94
30682;BME280;17439;48.092;11.842;2023-11-19T11:05:52;95306.03;;;14.73;81.76
30682;BME280;17439;48.092;11.842;2023-11-19T11:08:20;95281.22;;;14.78;81.99
30682;BME280;17439;48.092;11.842;2023-11-19T11:10:57;95284.50;;;14.84;78.47
30682;BME280;17439;48.092;11.842;2023-11-19T11:13:25;95273.94;;;14.95;80.41
30682;BME280;17439;48.092;11.842;2023-11-19T11:15:53;95281.88;;;15.00;79.57
30682;BME280;17439;48.092;11.842;2023-11-19T11:18:21;95282.00;;;15.03;79.81
30682;BME280;17439;48.092;11.842;2023-11-19T11:20:49;95284.75;;;15.03;79.79
30682;BME280;17439;48.092;11.842;2023-11-19T11:23:33;95280.84;;;15.04;77.76
30682;BME280;17439;48.092;11.842;2023-11-19T11:31:29;95271.19;;;15.07;76.77
30682;BME280;17439;48.092;11.842;2023-11-19T11:37:19;95279.81;;;15.09;77.96
30682;BME280;17439;48.092;11.842;2023-11-19T11:39:47;95274.03;;;15.11;78.97
30682;BME280;17439;48.092;11.842;2023-11-19T11:44:59;95279.13;;;15.12;75.64
30682;BME280;17439;48.092;11.842;2023-11-19T11:58:12;95255.81;;;15.27;79.48
30682;BME280;17439;48.092;11.842;2023-11-19T12:00:40;95267.25;;;15.33;78.85
30682;BME280;17439;48.092;11.842;2023-11-19T12:03:08;95267.00;;;15.38;78.97
30682;BME280;17439;48.092;11.842;2023-11-19T12:05:42;95259.63;;;15.38;75.68
30682;BME280;17439;48.092;11.842;2023-11-19T12:08:13;95260.66;;;15.34;77.95
30682;BME280;17439;48.092;11.842;2023-11-19T12:10:50;95269.19;;;15.45;75.66
30682;BME280;17439;48.092;11.842;2023-11-19T12:13:18;95262.31;;;15.51;78.33
30682;BME280;17439;48.092;11.842;2023-11-19T12:16:08;95265.94;;;15.55;76.63
30682;BME280;17439;48.092;11.842;2023-11-19T12:18:35;95252.50;;;15.62;79.42
30682;BME280;17439;48.092;11.842;2023-11-19T12:21:02;95268.28;;;15.69;79.18
30682;BME280;17439;48.092;11.842;2023-11-19T12:23:29;95247.31;;;15.73;79.06
30682;BME280;17439;48.092;11.842;2023-11-19T12:25:57;95249.34;;;15.76;78.51
30682;BME280;17439;48.092;11.842;2023-11-19T12:28:24;95250.28;;;15.80;78.63
30682;BME280;17439;48.092;11.842;2023-11-19T12:30:51;95244.81;;;15.80;77.70
30682;BME280;17439;48.092;11.842;2023-11-19T12:33:18;95232.72;;;15.81;78.14
30682;BME280;17439;48.092;11.842;2023-11-19T12:35:45;95238.66;;;15.83;77.64
30682;BME280;17439;48.092;11.842;2023-11-19T12:38:19;95233.97;;;15.84;72.71
30682;BME280;17439;48.092;11.842;2023-11-19T12:40:46;95250.09;;;15.89;77.40
30682;BME280;17439;48.092;11.842;2023-11-19T12:43:22;95237.94;;;15.86;73.09
30682;BME280;17439;48.092;11.842;2023-11-19T12:45:49;95233.47;;;15.94;75.80
30682;BME280;17439;48.092;11.842;2023-11-19T12:48:16;95238.47;;;15.92;76.25
30682;BME280;17439;48.092;11.842;2023-11-19T12:50:58;95230.19;;;15.88;72.85
30682;BME280;17439;48.092;11.842;2023-11-19T12:53:26;95234.88;;;15.88;74.99
30682;BME280;17439;48.092;11.842;2023-11-19T12:55:53;95226.38;;;15.77;73.91
30682;BME280;17439;48.092;11.842;2023-11-19T12:58:34;95221.00;;;15.81;73.41
30682;BME280;17439;48.092;11.842;2023-11-19T13:01:06;95221.00;;;15.81;72.82
30682;BME280;17439;48.092;11.842;2023-11-19T13:03:36;95219.06;;;15.81;76.47
30682;BME280;17439;48.092;11.842;2023-11-19T13:06:04;95229.19;;;15.81;76.32
30682;BME280;17439;48.092;11.842;2023-11-19T13:08:38;95216.22;;;15.77;73.32
30682;BME280;17439;48.092;11.842;2023-11-19T13:11:05;95218.63;;;15.79;75.90
30682;BME280;17439;48.092;11.842;2023-11-19T13:13:32;95217.41;;;15.76;75.51
30682;BME280;17439;48.092;11.842;2023-11-19T13:16:03;95217.41;;;15.76;73.39
30682;BME280;17439;48.092;11.842;2023-11-19T13:18:31;95210.28;;;15.75;75.50